Flight Track Log - Related Links

Times and Time Zones

All times are in EDT time to prevent confusion due to time zone crossing. See the CXA884 flight status page for this flight to view local times or setup timezone preferences in your user account.

Time Position Orientation Groundspeed Altitude Reporting Facility
EDT Latitude Longitude Course Direction KTS MPH feet Rate Location/Type
Sat 08:54:00 AM 25.2201 121.2286 297° West  Level Estimated
Sat 08:55:00 AM 25.2352 121.1962 297° West  Level Estimated
Sat 08:56:00 AM 25.2502 121.1638 297° West  Level Estimated
Sat 08:57:00 AM 25.2652 121.1315 297° West  Level Estimated
Sat 08:58:00 AM 25.2802 121.0991 297° West  Level Estimated
Sat 08:59:00 AM 25.2952 121.0667 297° West  Level Estimated
Sat 09:00:00 AM 25.3102 121.0343 297° West  Level Estimated
Sat 09:01:00 AM 25.3252 121.0019 297° West  Level Estimated
Sat 09:02:00 AM 25.3402 120.9695 297° West  Level Estimated
Sat 09:03:00 AM 25.3552 120.9371 297° West  Level Estimated
Sat 09:04:00 AM 25.3702 120.9046 297° West  Level Estimated
Sat 09:05:00 AM 25.3851 120.8722 297° West  Level Estimated
Sat 09:06:00 AM 25.4001 120.8398 297° West  Level Estimated
Sat 09:07:00 AM 25.4150 120.8073 297° West  Level Estimated
Sat 09:08:00 AM 25.4300 120.7749 297° West  Level Estimated
Sat 09:09:00 AM 25.4449 120.7424 297° West  Level Estimated
Sat 09:10:00 AM 25.4598 120.7099 297° West  Level Estimated
Sat 09:11:00 AM 25.4747 120.6774 297° West  Level Estimated
Sat 09:12:00 AM 25.4897 120.6449 297° West  Level Estimated
Sat 09:13:00 AM 25.5046 120.6124 297° West  Level Estimated
Sat 09:14:00 AM 25.5195 120.5799 297° West  Level Estimated
Sat 09:15:00 AM 25.5343 120.5474 297° West  Level Estimated
Sat 09:16:00 AM 25.5492 120.5149 297° West  Level Estimated
Sat 09:17:00 AM 25.5641 120.4824 297° West  Level Estimated
Sat 09:18:00 AM 25.5790 120.4498 297° West  Level Estimated
Sat 09:19:00 AM 25.5938 120.4173 297° West  Level Estimated
Sat 09:20:00 AM 25.6087 120.3847 297° West  Level Estimated
Sat 09:21:00 AM 25.6235 120.3521 297° West  Level Estimated
Sat 09:22:00 AM 25.6384 120.3196 297° West  Level Estimated
Sat 09:23:00 AM 25.6532 120.2870 297° West  Level Estimated
Sat 09:24:00 AM 25.6680 120.2544 297° West  Level Estimated
Sat 09:25:00 AM 25.6828 120.2218 297° West  Level Estimated
Sat 09:26:00 AM 25.6977 120.1892 297° West  Level Estimated
Sat 09:27:00 AM 25.7125 120.1566 297° West  Level Estimated
Sat 09:28:00 AM 25.7273 120.1240 297° West  Level Estimated
Sat 09:29:00 AM 25.7421 120.0913 297° West  Level Estimated
Sat 09:30:00 AM 25.7568 120.0587 297° West  Level Estimated
Sat 09:31:00 AM 25.7716 120.0261 297° West  Level Estimated
Sat 09:32:00 AM 25.7864 119.9934 297° West  Level Estimated
Sat 09:33:00 AM 25.8011 119.9607 297° West  Level Estimated
Sat 09:34:00 AM 25.8159 119.9281 297° West  Level Estimated
Sat 09:35:00 AM 25.8306 119.8954 297° West  Level Estimated
Sat 09:36:00 AM 25.8454 119.8627 297° West  Level Estimated
Sat 09:37:00 AM 25.8601 119.8300 297° West  Level Estimated
Sat 09:38:00 AM 25.8748 119.7973 297° West  Level Estimated
Sat 09:39:00 AM 25.8895 119.7646 297° West  Level Estimated
Sat 09:40:00 AM 25.9042 119.7319 297° West  Level Estimated
Sat 09:41:00 AM 25.9189 119.6992 297° West  Level Estimated
Sat 09:42:00 AM 25.9336 119.6664 297° West  Level Estimated
Sat 09:43:00 AM 25.9351 119.6633 297° West  Level Estimated
Sat 09:44:00 AM 25.9351 119.6633 North  Level Estimated
Sat 09:45:00 AM 25.9351 119.6633 North  Level Estimated
Sat 09:46:00 AM 25.9351 119.6633 North  Level Estimated
Sat 09:47:00 AM 25.9351 119.6633 North  Level Estimated
Sat 09:48:00 AM 25.9351 119.6633 North  Level Estimated
Sat 09:49:00 AM 25.9351 119.6633 North  Level Estimated
Sat 09:50:00 AM 25.9351 119.6633 North  Level Estimated
Sat 09:51:00 AM 25.9351 119.6633 North  Level Estimated
Sat 09:52:00 AM 25.9351 119.6633 North  Level Estimated
Sat 09:53:00 AM 25.9351 119.6633 North  Level Estimated
Sat 09:54:00 AM 25.9351 119.6633 North  Level Estimated
Sat 09:55:00 AM 25.9351 119.6633 North  Level Estimated
Sat 09:56:00 AM 25.9351 119.6633 North  Level Estimated
Sat 09:57:00 AM 25.9351 119.6633 North  Level Estimated
Sat 09:58:00 AM 25.9351 119.6633 North  Level Estimated

Login

Don't have an account? Register now (free) for customized features, flight alerts, and more!